Time;durP1;ratioP1;P1;durP2;ratioP2;P2;SDS_P1;SDS_P2;PMS_P1;PMS_P2;Temp;Humidity;BMP_temperature;BMP_pressure;BME280_temperature;BME280_humidity;BME280_pressure;Samples;Min_cycle;Max_cycle;Signal;HPM_P1;HPM_P2
2023/07/03 00:02:25;;;;;;;5.15;4.55;;;21.20;99.90;;;;;;5069807;28;20812;-73
2023/07/03 00:04:51;;;;;;;5.45;4.60;;;21.20;99.90;;;;;;5084422;28;20931;-73
2023/07/03 00:07:17;;;;;;;6.50;5.03;;;21.10;99.90;;;;;;5082036;28;20415;-74
2023/07/03 00:09:45;;;;;;;6.55;5.20;;;21.00;99.90;;;;;;5079910;28;21182;-73
2023/07/03 00:12:12;;;;;;;7.80;5.23;;;21.00;99.90;;;;;;5077041;28;20423;-73
2023/07/03 00:14:39;;;;;;;7.95;5.70;;;21.10;99.90;;;;;;5071501;28;20427;-73
2023/07/03 00:17:10;;;;;;;6.43;5.07;;;21.10;99.90;;;;;;5068377;28;20936;-73
2023/07/03 00:19:37;;;;;;;6.77;5.60;;;21.20;99.90;;;;;;5086165;28;20418;-73
2023/07/03 00:22:04;;;;;;;6.00;5.30;;;21.20;99.90;;;;;;5068826;28;20483;-73
2023/07/03 00:24:31;;;;;;;6.32;5.30;;;21.20;99.90;;;;;;5077593;28;20410;-73
2023/07/03 00:26:59;;;;;;;6.57;5.35;;;21.20;99.90;;;;;;5082760;28;20472;-73
2023/07/03 00:29:28;;;;;;;7.40;5.70;;;21.20;99.90;;;;;;5082285;28;20423;-73
2023/07/03 00:31:55;;;;;;;6.53;5.40;;;21.10;99.90;;;;;;5079763;28;20424;-74
2023/07/03 00:34:21;;;;;;;6.38;5.40;;;21.20;99.90;;;;;;5074021;28;20556;-73
2023/07/03 00:36:47;;;;;;;6.30;5.57;;;21.20;99.90;;;;;;5076168;28;20455;-73
2023/07/03 00:39:14;;;;;;;6.75;5.57;;;21.20;99.90;;;;;;5080097;28;20402;-73
2023/07/03 00:41:42;;;;;;;8.30;5.35;;;21.10;99.90;;;;;;5086285;28;21003;-73
2023/07/03 00:44:15;;;;;;;6.85;5.47;;;21.10;99.90;;;;;;5093955;28;20402;-73
2023/07/03 00:46:45;;;;;;;7.23;5.47;;;21.00;99.90;;;;;;5073792;28;20402;-73
2023/07/03 00:49:12;;;;;;;6.30;5.40;;;21.00;99.90;;;;;;5080566;28;20833;-73
2023/07/03 00:51:44;;;;;;;7.25;5.80;;;21.00;99.90;;;;;;5083051;27;20405;-73
2023/07/03 00:54:11;;;;;;;6.38;5.32;;;21.00;99.90;;;;;;5064406;28;20423;-73
2023/07/03 00:56:37;;;;;;;7.50;5.38;;;21.00;99.90;;;;;;5078329;28;20417;-73
2023/07/03 00:59:05;;;;;;;7.40;5.35;;;21.00;99.90;;;;;;5074608;28;20853;-73
2023/07/03 01:02:34;;;;;;;7.95;5.50;;;21.00;99.90;;;;;;5076349;28;20558;-73
2023/07/03 01:05:18;;;;;;;8.07;5.45;;;21.00;99.90;;;;;;5043041;28;21125;-73
2023/07/03 01:07:46;;;;;;;7.70;5.75;;;21.10;99.90;;;;;;5080406;28;20477;-73
2023/07/03 01:10:21;;;;;;;6.97;5.30;;;21.20;99.90;;;;;;5075791;28;20614;-73
2023/07/03 01:12:54;;;;;;;7.25;5.90;;;21.10;99.90;;;;;;5070652;28;20417;-73
2023/07/03 01:15:30;;;;;;;7.13;5.90;;;21.10;99.90;;;;;;5101894;27;20490;-73
2023/07/03 01:18:01;;;;;;;7.63;5.72;;;21.10;99.90;;;;;;5077509;28;20407;-73
2023/07/03 01:20:36;;;;;;;7.50;5.70;;;21.10;99.90;;;;;;5073158;28;20415;-73
2023/07/03 01:23:20;;;;;;;7.83;5.40;;;21.00;99.90;;;;;;5074717;28;20425;-73
2023/07/03 01:25:49;;;;;;;6.53;5.28;;;21.00;99.90;;;;;;5071038;28;20476;-73
2023/07/03 01:28:20;;;;;;;8.15;4.90;;;21.10;99.90;;;;;;5080407;28;20421;-73
2023/07/03 01:30:50;;;;;;;6.40;5.00;;;21.10;99.90;;;;;;5080071;28;20786;-73
2023/07/03 01:33:25;;;;;;;6.80;4.75;;;21.10;99.90;;;;;;5090263;28;20415;-73
2023/07/03 01:35:54;;;;;;;5.70;4.85;;;21.10;99.90;;;;;;5077029;28;21079;-73
2023/07/03 01:38:22;;;;;;;6.43;4.78;;;21.10;99.90;;;;;;5065351;28;20410;-73
2023/07/03 01:40:49;;;;;;;5.57;4.60;;;21.00;99.90;;;;;;5073763;28;20432;-73
2023/07/03 01:43:17;;;;;;;6.37;5.17;;;21.00;99.90;;;;;;5068271;28;20410;-73
2023/07/03 01:45:46;;;;;;;5.93;4.88;;;21.00;99.90;;;;;;5075508;28;20416;-73
2023/07/03 01:48:15;;;;;;;7.05;4.82;;;20.90;99.90;;;;;;5074572;28;20813;-73
2023/07/03 01:50:45;;;;;;;6.85;5.15;;;20.90;99.90;;;;;;5108125;27;20406;-73
2023/07/03 01:53:32;;;;;;;6.07;4.97;;;20.90;99.90;;;;;;5079704;28;20409;-73
2023/07/03 01:56:32;;;;;;;7.03;5.43;;;20.90;99.90;;;;;;5105924;27;20414;-73
2023/07/03 01:59:29;;;;;;;5.75;5.10;;;20.90;99.90;;;;;;5066441;28;20425;-73
2023/07/03 02:02:22;;;;;;;7.22;5.28;;;20.90;99.90;;;;;;5057105;28;20443;-72
2023/07/03 02:05:07;;;;;;;6.65;5.40;;;20.90;99.90;;;;;;5103286;27;20505;-72
2023/07/03 02:07:38;;;;;;;6.28;5.35;;;21.00;99.90;;;;;;5074684;28;20410;-73
2023/07/03 02:10:05;;;;;;;7.60;5.60;;;21.00;99.90;;;;;;5079677;28;20452;-72
2023/07/03 02:12:32;;;;;;;7.20;5.80;;;20.90;99.90;;;;;;5073803;28;20407;-72
2023/07/03 02:15:04;;;;;;;7.03;5.65;;;20.90;99.90;;;;;;5084486;28;20423;-72
2023/07/03 02:17:30;;;;;;;6.88;5.53;;;20.90;99.90;;;;;;5078713;28;20821;-72
2023/07/03 02:19:57;;;;;;;6.57;5.50;;;20.90;99.90;;;;;;5075002;28;20542;-73
2023/07/03 02:22:23;;;;;;;8.27;6.00;;;20.90;99.90;;;;;;5106462;27;20407;-72
2023/07/03 02:24:49;;;;;;;7.63;6.30;;;20.80;99.90;;;;;;5075627;28;20881;-72
2023/07/03 02:27:15;;;;;;;6.80;5.57;;;20.80;99.90;;;;;;5093915;28;20412;-72
2023/07/03 02:29:42;;;;;;;6.75;5.78;;;20.70;99.90;;;;;;5060232;28;20422;-73
2023/07/03 02:32:09;;;;;;;7.72;6.10;;;20.70;99.90;;;;;;5108561;27;20517;-72
2023/07/03 02:34:35;;;;;;;9.20;6.20;;;20.70;99.90;;;;;;5067117;28;20423;-72
2023/07/03 02:37:02;;;;;;;6.60;5.73;;;20.70;99.90;;;;;;5074198;28;20758;-72
2023/07/03 02:39:29;;;;;;;8.07;6.00;;;20.70;99.90;;;;;;5075898;28;20417;-72
2023/07/03 02:41:55;;;;;;;8.13;5.95;;;20.70;99.90;;;;;;5085239;28;20407;-72
2023/07/03 02:44:22;;;;;;;7.70;5.63;;;20.60;99.90;;;;;;5078435;28;20406;-72
2023/07/03 02:46:48;;;;;;;7.35;5.53;;;20.70;99.90;;;;;;5079327;28;20405;-72
2023/07/03 02:49:14;;;;;;;6.30;5.30;;;20.70;99.90;;;;;;5074971;28;20451;-72
2023/07/03 02:51:41;;;;;;;6.80;5.78;;;20.70;99.90;;;;;;5088966;27;20790;-72
2023/07/03 02:54:10;;;;;;;7.70;5.90;;;20.70;99.90;;;;;;5065824;28;20412;-72
2023/07/03 02:56:37;;;;;;;8.60;6.22;;;20.70;99.90;;;;;;5107614;27;21000;-72
2023/07/03 02:59:03;;;;;;;8.63;5.72;;;20.70;99.90;;;;;;5108246;28;20937;-72
2023/07/03 03:01:30;;;;;;;10.20;5.82;;;20.70;99.90;;;;;;5078376;28;20500;-72
2023/07/03 03:03:58;;;;;;;6.70;5.60;;;20.80;99.90;;;;;;5069619;28;20465;-72
2023/07/03 03:06:25;;;;;;;7.03;5.67;;;20.80;99.90;;;;;;5077263;28;20958;-73
2023/07/03 03:08:51;;;;;;;7.75;5.90;;;20.80;99.90;;;;;;5068787;28;20407;-73
2023/07/03 03:11:17;;;;;;;7.43;5.67;;;20.80;99.90;;;;;;5087928;28;21035;-73
2023/07/03 03:13:44;;;;;;;7.60;5.10;;;20.80;99.90;;;;;;5087967;28;20953;-73
2023/07/03 03:16:10;;;;;;;6.72;5.00;;;20.90;99.90;;;;;;5074372;28;20762;-73
2023/07/03 03:18:36;;;;;;;5.90;4.80;;;20.90;99.90;;;;;;5077249;28;20407;-73
2023/07/03 03:21:02;;;;;;;6.97;4.65;;;20.90;99.90;;;;;;5074416;28;20451;-73
2023/07/03 03:23:28;;;;;;;6.68;4.47;;;21.00;99.90;;;;;;5113596;27;20502;-73
2023/07/03 03:25:55;;;;;;;5.28;3.92;;;21.00;99.90;;;;;;5076704;28;20850;-73
2023/07/03 03:28:21;;;;;;;4.55;4.07;;;21.00;99.90;;;;;;5085877;28;20412;-73
2023/07/03 03:30:47;;;;;;;3.95;3.55;;;20.90;99.90;;;;;;5075007;28;20411;-73
2023/07/03 03:33:13;;;;;;;4.25;3.10;;;21.00;99.90;;;;;;5072804;28;20508;-73
2023/07/03 03:35:41;;;;;;;4.67;3.03;;;21.00;99.90;;;;;;5056370;28;20540;-73
2023/07/03 03:38:07;;;;;;;4.35;3.20;;;21.00;99.90;;;;;;5066970;28;21150;-73
2023/07/03 03:40:33;;;;;;;3.50;3.20;;;21.10;99.90;;;;;;5057613;28;20946;-73
2023/07/03 03:43:00;;;;;;;4.90;3.13;;;21.10;99.90;;;;;;5073280;28;20407;-73
2023/07/03 03:45:27;;;;;;;3.92;3.25;;;21.10;99.90;;;;;;5083419;28;20749;-73
2023/07/03 03:47:53;;;;;;;7.07;3.28;;;21.20;99.90;;;;;;5074275;28;20611;-74
2023/07/03 03:50:19;;;;;;;6.25;3.70;;;21.20;99.90;;;;;;5071677;28;20407;-74
2023/07/03 03:52:46;;;;;;;4.05;3.60;;;21.20;99.90;;;;;;5095828;28;20414;-74
2023/07/03 03:55:12;;;;;;;7.65;4.00;;;21.30;99.90;;;;;;5071024;28;20422;-73
2023/07/03 03:57:38;;;;;;;6.25;3.90;;;21.30;99.90;;;;;;5068403;28;20415;-74
2023/07/03 04:00:13;;;;;;;8.88;4.38;;;21.30;99.90;;;;;;5086354;28;20477;-74
2023/07/03 04:02:41;;;;;;;10.57;4.75;;;21.30;99.90;;;;;;5074776;28;20511;-73
2023/07/03 04:05:08;;;;;;;8.00;4.43;;;21.30;99.90;;;;;;5064968;28;20834;-74
2023/07/03 04:07:34;;;;;;;9.57;4.50;;;21.40;99.90;;;;;;5072956;28;20418;-74
2023/07/03 04:10:00;;;;;;;7.00;4.30;;;21.40;99.90;;;;;;5079417;28;20908;-73
2023/07/03 04:12:26;;;;;;;8.43;3.90;;;21.40;99.90;;;;;;5081291;28;20421;-74
2023/07/03 04:14:53;;;;;;;6.15;4.13;;;21.50;99.90;;;;;;5062534;28;20413;-73
2023/07/03 04:17:20;;;;;;;6.97;3.67;;;21.50;99.90;;;;;;5093103;28;20559;-74
2023/07/03 04:19:46;;;;;;;5.30;3.63;;;21.60;99.90;;;;;;5077476;28;20433;-73
2023/07/03 04:22:12;;;;;;;5.05;3.65;;;21.60;99.90;;;;;;5092504;27;20450;-74
2023/07/03 04:24:39;;;;;;;4.40;3.45;;;21.60;99.90;;;;;;5078575;28;20499;-73
2023/07/03 04:27:06;;;;;;;4.43;3.30;;;21.70;99.90;;;;;;5067005;28;21281;-74
2023/07/03 04:29:32;;;;;;;7.47;3.70;;;21.70;99.90;;;;;;5086906;28;21108;-74
2023/07/03 04:31:59;;;;;;;4.33;3.50;;;21.80;99.90;;;;;;5071066;28;20423;-74
2023/07/03 04:34:25;;;;;;;4.15;3.40;;;21.90;99.90;;;;;;5082433;28;20502;-74
2023/07/03 04:36:52;;;;;;;5.00;3.70;;;22.00;99.90;;;;;;5074476;28;20912;-74
2023/07/03 04:39:18;;;;;;;4.87;3.47;;;22.10;99.90;;;;;;5071124;28;20437;-73
2023/07/03 04:41:45;;;;;;;5.45;3.50;;;22.10;99.90;;;;;;5074063;28;20409;-74
2023/07/03 04:44:12;;;;;;;4.78;3.30;;;22.20;99.90;;;;;;5081209;28;20410;-74
2023/07/03 04:46:40;;;;;;;4.97;3.33;;;22.30;99.90;;;;;;5085821;28;20410;-74
2023/07/03 04:49:06;;;;;;;5.00;3.30;;;22.40;99.90;;;;;;5067234;28;20412;-74
2023/07/03 04:51:32;;;;;;;4.10;3.17;;;22.50;99.90;;;;;;5074901;28;20422;-74
2023/07/03 04:54:00;;;;;;;3.20;2.80;;;22.60;99.90;;;;;;5075626;28;20419;-74
2023/07/03 04:56:28;;;;;;;4.90;2.97;;;22.70;99.90;;;;;;5075261;28;20778;-74
2023/07/03 04:58:55;;;;;;;3.50;3.10;;;22.80;99.90;;;;;;5068122;28;20424;-74
2023/07/03 05:01:22;;;;;;;4.60;3.30;;;22.90;99.90;;;;;;5062468;28;20420;-74
2023/07/03 05:03:48;;;;;;;3.45;3.10;;;22.90;99.90;;;;;;5069791;28;20495;-74
2023/07/03 05:06:16;;;;;;;4.07;3.13;;;22.90;99.90;;;;;;5064872;28;20402;-74
2023/07/03 05:08:42;;;;;;;3.75;3.13;;;23.00;99.90;;;;;;5085001;28;20407;-74
2023/07/03 05:11:08;;;;;;;3.50;3.20;;;23.00;99.90;;;;;;5092025;28;20398;-73
2023/07/03 05:13:34;;;;;;;3.63;2.80;;;23.00;99.90;;;;;;5078506;28;20528;-73
2023/07/03 05:16:01;;;;;;;5.95;3.17;;;23.10;99.90;;;;;;5106057;27;20503;-74
2023/07/03 05:18:27;;;;;;;4.15;3.00;;;23.10;99.90;;;;;;5073051;28;20482;-74
2023/07/03 05:20:53;;;;;;;4.80;3.13;;;23.10;99.90;;;;;;5079770;28;20424;-74
2023/07/03 05:23:19;;;;;;;4.00;3.10;;;23.20;99.90;;;;;;5069110;28;20724;-74
2023/07/03 05:25:47;;;;;;;4.28;3.17;;;23.20;99.90;;;;;;5087011;28;20518;-74
2023/07/03 05:28:14;;;;;;;4.82;3.70;;;23.30;99.90;;;;;;5080325;28;20497;-74
2023/07/03 05:30:41;;;;;;;4.45;3.20;;;23.40;99.90;;;;;;5090272;28;20407;-74
2023/07/03 05:33:10;;;;;;;5.30;3.03;;;23.50;99.90;;;;;;5076731;28;20492;-74
2023/07/03 05:35:38;;;;;;;4.45;3.33;;;23.50;99.90;;;;;;5085242;28;20426;-74
2023/07/03 05:38:04;;;;;;;3.40;3.10;;;23.60;99.90;;;;;;5088348;28;20487;-74
2023/07/03 05:40:31;;;;;;;4.50;3.50;;;23.70;99.90;;;;;;5070335;28;20430;-74
2023/07/03 05:42:57;;;;;;;4.07;3.20;;;23.70;99.90;;;;;;5087918;28;20413;-74
2023/07/03 05:45:24;;;;;;;5.00;3.30;;;23.70;99.90;;;;;;5067191;28;20411;-74
2023/07/03 05:47:50;;;;;;;3.78;3.00;;;23.80;99.90;;;;;;5069525;28;20522;-74
2023/07/03 05:50:16;;;;;;;3.50;2.90;;;23.90;99.90;;;;;;5109018;27;20483;-74
2023/07/03 05:52:44;;;;;;;3.67;3.13;;;24.00;99.90;;;;;;5082167;28;20912;-74
2023/07/03 05:55:10;;;;;;;4.40;3.00;;;24.00;99.90;;;;;;5063192;28;20405;-74
2023/07/03 05:57:39;;;;;;;4.20;3.03;;;24.10;99.90;;;;;;5073341;28;20418;-74
2023/07/03 06:00:13;;;;;;;4.00;3.22;;;24.20;99.90;;;;;;5074618;28;20414;-74
2023/07/03 06:02:45;;;;;;;4.40;3.30;;;24.30;99.90;;;;;;5075948;28;20499;-74
2023/07/03 06:05:13;;;;;;;3.80;2.90;;;24.40;99.90;;;;;;5057907;28;20442;-74
2023/07/03 06:07:40;;;;;;;4.88;3.30;;;24.50;99.60;;;;;;5080661;28;21060;-74
2023/07/03 06:10:08;;;;;;;4.95;3.10;;;24.60;99.10;;;;;;5092674;28;20481;-74
2023/07/03 06:12:34;;;;;;;3.80;3.13;;;24.70;99.60;;;;;;5075661;28;20544;-74
2023/07/03 06:15:02;;;;;;;4.07;3.10;;;24.70;98.50;;;;;;5065935;28;20447;-74
2023/07/03 06:17:31;;;;;;;5.65;3.30;;;24.70;99.00;;;;;;5083795;28;20396;-74
2023/07/03 06:19:58;;;;;;;4.32;3.30;;;24.80;99.50;;;;;;5070030;28;20410;-74
2023/07/03 06:22:24;;;;;;;5.22;3.47;;;24.90;99.50;;;;;;5080899;28;20418;-74
2023/07/03 06:24:51;;;;;;;5.10;3.50;;;25.10;99.90;;;;;;5059539;28;20519;-73
2023/07/03 06:27:17;;;;;;;5.18;3.53;;;25.20;99.80;;;;;;5075892;28;20524;-74
2023/07/03 06:29:44;;;;;;;4.60;2.90;;;25.30;99.20;;;;;;5073200;28;20732;-74
2023/07/03 06:32:11;;;;;;;4.03;3.00;;;25.40;98.60;;;;;;5075385;27;20413;-74
2023/07/03 06:34:38;;;;;;;6.45;3.33;;;25.50;98.80;;;;;;5072780;28;20417;-73
2023/07/03 06:37:05;;;;;;;4.03;3.17;;;25.70;99.10;;;;;;5080509;28;20498;-74
2023/07/03 06:39:33;;;;;;;5.20;3.80;;;25.90;99.30;;;;;;5070690;28;20519;-74
2023/07/03 06:41:59;;;;;;;7.07;3.67;;;26.00;99.30;;;;;;5078763;28;20488;-74
2023/07/03 06:44:27;;;;;;;6.15;3.70;;;26.20;99.20;;;;;;5080400;28;20415;-73
2023/07/03 06:46:53;;;;;;;5.67;3.40;;;26.20;98.70;;;;;;5110824;27;21090;-73
2023/07/03 06:49:22;;;;;;;4.20;2.87;;;26.30;97.70;;;;;;5080458;28;20405;-74
2023/07/03 06:51:49;;;;;;;3.83;2.90;;;26.40;96.90;;;;;;5079438;28;20410;-74
2023/07/03 06:54:15;;;;;;;3.63;3.00;;;26.50;97.80;;;;;;5090293;28;20417;-74
2023/07/03 06:56:41;;;;;;;3.33;2.92;;;26.60;98.60;;;;;;5081080;28;20402;-73
2023/07/03 06:59:07;;;;;;;3.40;2.78;;;26.60;97.40;;;;;;5063566;28;20475;-74
2023/07/03 07:01:34;;;;;;;3.67;2.88;;;26.70;97.90;;;;;;5089470;28;20445;-74
2023/07/03 07:04:00;;;;;;;4.43;2.92;;;26.70;97.40;;;;;;5073071;28;20513;-74
2023/07/03 07:06:30;;;;;;;3.57;2.80;;;26.90;97.60;;;;;;5072316;28;20436;-74
2023/07/03 07:08:59;;;;;;;5.30;2.83;;;27.00;97.50;;;;;;5080703;28;20407;-74
2023/07/03 07:11:33;;;;;;;4.40;2.90;;;27.00;97.00;;;;;;5070634;28;20553;-74
2023/07/03 07:14:02;;;;;;;5.00;2.78;;;27.20;97.70;;;;;;5072112;28;20517;-74
2023/07/03 07:16:34;;;;;;;6.60;3.80;;;27.30;98.60;;;;;;5078056;28;20404;-74
2023/07/03 07:19:06;;;;;;;5.10;3.78;;;27.50;99.90;;;;;;5072942;28;20412;-74
2023/07/03 07:21:35;;;;;;;4.00;3.23;;;27.70;99.90;;;;;;5070948;28;20421;-74
2023/07/03 07:24:18;;;;;;;6.82;3.80;;;27.70;99.90;;;;;;5074335;28;20404;-74
2023/07/03 07:26:45;;;;;;;5.78;4.15;;;27.80;99.90;;;;;;5073467;28;20404;-74
2023/07/03 07:29:12;;;;;;;7.55;3.97;;;27.90;99.90;;;;;;5075530;28;20421;-74
2023/07/03 07:31:39;;;;;;;6.97;4.22;;;28.00;99.90;;;;;;5108541;27;20410;-74
2023/07/03 07:34:08;;;;;;;5.65;4.07;;;28.10;99.90;;;;;;5074720;28;20500;-74
2023/07/03 07:36:36;;;;;;;9.95;4.25;;;28.20;99.90;;;;;;5080507;28;20454;-74
2023/07/03 07:39:03;;;;;;;5.50;4.25;;;28.30;99.90;;;;;;5071965;28;20872;-74
2023/07/03 07:41:30;;;;;;;10.00;4.10;;;28.40;99.90;;;;;;5084893;28;20439;-74
2023/07/03 07:43:58;;;;;;;6.32;3.80;;;28.40;99.90;;;;;;5057888;28;21208;-74
2023/07/03 07:46:29;;;;;;;8.68;4.30;;;28.50;99.90;;;;;;5080378;28;20396;-74
2023/07/03 07:48:58;;;;;;;6.75;4.13;;;28.60;99.90;;;;;;5077988;28;20938;-74
2023/07/03 07:51:26;;;;;;;6.20;3.95;;;28.70;99.90;;;;;;5059677;28;20459;-74
2023/07/03 07:53:57;;;;;;;6.90;4.03;;;28.80;99.90;;;;;;5073745;28;20758;-74
2023/07/03 07:56:25;;;;;;;6.68;4.18;;;28.80;99.90;;;;;;5118987;27;20399;-74
2023/07/03 07:58:52;;;;;;;6.65;3.90;;;29.00;99.90;;;;;;5088044;28;20453;-74
2023/07/03 08:01:18;;;;;;;7.20;3.83;;;29.00;99.90;;;;;;5094617;27;20770;-74
2023/07/03 08:03:45;;;;;;;6.57;4.10;;;29.00;99.90;;;;;;5081654;28;21376;-74
2023/07/03 08:06:13;;;;;;;8.05;4.30;;;29.20;99.90;;;;;;5075917;28;20414;-74
2023/07/03 08:08:40;;;;;;;6.33;4.07;;;29.30;99.90;;;;;;5081078;28;20451;-74
2023/07/03 08:11:09;;;;;;;9.07;4.50;;;29.50;99.90;;;;;;5080322;28;20946;-74
2023/07/03 08:13:39;;;;;;;8.17;4.50;;;29.60;99.90;;;;;;5077452;28;20423;-74
2023/07/03 08:16:08;;;;;;;6.93;4.25;;;29.60;99.90;;;;;;5076668;28;20414;-74
2023/07/03 08:18:34;;;;;;;7.45;4.07;;;29.60;99.90;;;;;;5064300;28;20416;-74
2023/07/03 08:21:01;;;;;;;6.75;4.50;;;29.70;99.90;;;;;;5066963;28;20489;-74
2023/07/03 08:23:29;;;;;;;8.00;4.30;;;29.80;99.90;;;;;;5099737;28;20560;-73
2023/07/03 08:25:56;;;;;;;7.00;4.30;;;29.90;99.90;;;;;;5087608;28;20402;-74
2023/07/03 08:28:23;;;;;;;7.03;4.32;;;29.90;99.90;;;;;;5098026;28;20846;-75
2023/07/03 08:30:49;;;;;;;5.78;4.30;;;30.10;99.90;;;;;;5091728;28;20949;-74
2023/07/03 08:33:16;;;;;;;8.68;4.32;;;30.10;99.90;;;;;;5090153;27;20403;-74
2023/07/03 08:35:43;;;;;;;8.77;4.30;;;30.20;99.90;;;;;;5071536;28;20536;-74
2023/07/03 08:38:10;;;;;;;7.07;4.40;;;30.30;99.90;;;;;;5071203;28;20406;-74
2023/07/03 08:40:36;;;;;;;9.20;4.10;;;30.40;99.90;;;;;;5070808;28;20443;-74
2023/07/03 08:43:07;;;;;;;7.85;4.28;;;30.50;99.90;;;;;;5073706;28;20411;-74
2023/07/03 08:45:42;;;;;;;5.47;4.37;;;30.60;99.90;;;;;;5079697;28;20411;-73
2023/07/03 08:48:23;;;;;;;8.70;4.38;;;30.70;99.90;;;;;;5080083;28;20402;-74
2023/07/03 08:50:59;;;;;;;7.45;4.35;;;30.80;99.90;;;;;;5091763;28;20414;-74
2023/07/03 08:53:43;;;;;;;6.85;4.10;;;30.90;99.90;;;;;;5064045;28;20404;-74
2023/07/03 08:56:30;;;;;;;10.48;4.78;;;31.00;99.90;;;;;;5073916;28;20515;-74
2023/07/03 08:58:57;;;;;;;8.30;4.50;;;30.90;99.90;;;;;;5066448;28;20920;-74
2023/07/03 09:02:00;;;;;;;8.52;4.55;;;30.90;99.90;;;;;;5025844;28;20410;-74
2023/07/03 09:04:57;;;;;;;7.40;4.28;;;31.00;99.90;;;;;;5077364;28;20919;-74
2023/07/03 09:07:52;;;;;;;6.60;4.18;;;31.40;99.90;;;;;;5084693;28;20457;-74
2023/07/03 09:10:37;;;;;;;6.45;4.40;;;31.40;99.90;;;;;;5077321;28;20412;-74
2023/07/03 09:13:35;;;;;;;7.60;4.43;;;31.60;99.90;;;;;;5078107;28;20409;-74
2023/07/03 09:16:14;;;;;;;6.45;3.90;;;31.60;99.90;;;;;;5079957;28;20480;-75
2023/07/03 09:18:59;;;;;;;6.25;4.70;;;31.70;99.90;;;;;;5077640;28;20417;-74
2023/07/03 09:21:30;;;;;;;7.03;4.68;;;31.90;99.90;;;;;;5079654;28;20477;-74
2023/07/03 09:24:14;;;;;;;8.88;4.95;;;31.90;99.90;;;;;;5059349;28;20890;-74
2023/07/03 09:26:57;;;;;;;6.77;5.00;;;32.00;99.90;;;;;;5108500;27;20508;-74
2023/07/03 09:29:27;;;;;;;7.03;5.00;;;31.80;99.90;;;;;;5071814;28;20508;-74
2023/07/03 09:31:55;;;;;;;9.00;5.00;;;32.10;99.90;;;;;;5113104;27;20956;-74
2023/07/03 09:34:24;;;;;;;7.88;4.90;;;32.20;99.90;;;;;;5063405;28;20438;-74
2023/07/03 09:37:01;;;;;;;7.43;5.03;;;32.20;99.90;;;;;;5080377;28;20870;-74
2023/07/03 09:39:30;;;;;;;5.95;4.80;;;32.10;99.90;;;;;;5072559;28;20403;-74
2023/07/03 09:42:15;;;;;;;9.30;5.45;;;32.40;99.90;;;;;;5110662;27;20408;-74
2023/07/03 09:44:43;;;;;;;9.05;5.47;;;32.60;99.90;;;;;;5097871;27;20456;-74
2023/07/03 09:47:29;;;;;;;8.77;5.50;;;32.60;99.90;;;;;;5073721;28;20951;-74
2023/07/03 09:50:05;;;;;;;8.50;5.40;;;32.60;99.90;;;;;;5077725;28;20422;-74
2023/07/03 09:52:32;;;;;;;7.37;5.50;;;32.70;99.90;;;;;;5055713;28;20454;-74
2023/07/03 09:55:03;;;;;;;10.13;5.85;;;32.90;99.90;;;;;;5077393;28;20423;-74
2023/07/03 09:57:29;;;;;;;7.53;5.40;;;32.70;99.90;;;;;;5078999;28;20421;-74
2023/07/03 10:00:21;;;;;;;9.30;5.67;;;32.90;99.90;;;;;;5070894;28;20440;-73
2023/07/03 10:02:55;;;;;;;9.73;6.40;;;33.10;99.90;;;;;;5071145;28;20412;-73
2023/07/03 10:05:33;;;;;;;9.70;5.73;;;33.20;99.90;;;;;;5091885;28;20408;-72
2023/07/03 10:08:04;;;;;;;10.48;6.05;;;33.10;99.90;;;;;;5074955;28;20505;-73
2023/07/03 10:10:34;;;;;;;9.23;5.70;;;33.20;99.90;;;;;;5086304;28;20414;-73
2023/07/03 10:13:16;;;;;;;9.07;5.88;;;32.90;99.90;;;;;;5070509;28;20419;-72
2023/07/03 10:15:43;;;;;;;7.28;5.47;;;33.00;99.90;;;;;;5072663;28;20418;-73
2023/07/03 10:18:36;;;;;;;8.88;5.57;;;33.10;99.90;;;;;;5073591;28;20423;-73
2023/07/03 10:21:13;;;;;;;10.63;5.88;;;32.80;99.90;;;;;;5086276;28;20427;-72
2023/07/03 10:23:41;;;;;;;9.63;5.80;;;33.00;99.90;;;;;;5088141;27;20784;-73
2023/07/03 10:26:30;;;;;;;9.27;6.05;;;33.10;99.90;;;;;;5101966;27;20414;-73
2023/07/03 10:29:11;;;;;;;9.95;5.90;;;33.00;99.90;;;;;;5059718;28;20409;-73
2023/07/03 10:32:15;;;;;;;10.57;6.50;;;32.80;99.90;;;;;;5090118;28;20467;-72
2023/07/03 10:34:55;;;;;;;11.00;6.07;;;32.70;99.90;;;;;;5073539;28;20481;-73
2023/07/03 10:37:24;;;;;;;7.95;6.13;;;32.70;99.90;;;;;;5073159;28;21113;-72
2023/07/03 10:40:04;;;;;;;8.83;6.70;;;32.70;99.90;;;;;;5101998;27;21548;-73
2023/07/03 10:42:39;;;;;;;9.10;6.87;;;32.50;99.90;;;;;;5090081;28;20439;-73
2023/07/03 10:45:11;;;;;;;10.18;6.63;;;32.50;99.90;;;;;;5058815;28;21177;-72
2023/07/03 10:47:47;;;;;;;10.82;6.85;;;32.40;99.90;;;;;;5088289;28;20524;-73
2023/07/03 10:50:16;;;;;;;10.48;6.88;;;32.50;99.90;;;;;;5056600;28;20413;-73
2023/07/03 10:53:02;;;;;;;7.93;6.50;;;32.40;99.90;;;;;;5104479;27;20410;-73
2023/07/03 10:55:56;;;;;;;10.20;6.70;;;32.20;99.90;;;;;;5073603;28;20415;-73
2023/07/03 10:58:37;;;;;;;10.30;6.50;;;32.10;99.90;;;;;;5071426;28;20406;-73
2023/07/03 11:01:27;;;;;;;9.70;7.05;;;32.10;99.90;;;;;;5083628;28;20414;-72
2023/07/03 11:04:08;;;;;;;10.07;6.93;;;32.00;99.90;;;;;;5074439;28;20458;-72
2023/07/03 11:06:42;;;;;;;10.23;7.10;;;31.90;99.90;;;;;;5087683;28;20463;-73
2023/07/03 11:09:42;;;;;;;9.80;6.82;;;31.90;99.90;;;;;;5102626;28;20481;-72
2023/07/03 11:12:48;;;;;;;10.88;7.18;;;31.60;99.90;;;;;;5072717;28;20404;-73
2023/07/03 11:15:43;;;;;;;9.23;7.22;;;31.40;99.90;;;;;;5051701;28;20504;-73
2023/07/03 11:18:52;;;;;;;10.48;7.40;;;31.40;99.90;;;;;;5072050;28;21047;-73
2023/07/03 11:21:47;;;;;;;12.07;7.43;;;31.50;99.90;;;;;;5076133;28;20415;-73
2023/07/03 11:24:24;;;;;;;12.05;7.20;;;31.40;99.90;;;;;;5071485;28;20417;-72
2023/07/03 11:27:13;;;;;;;13.97;7.80;;;31.40;99.90;;;;;;5069498;28;20406;-73
2023/07/03 11:29:41;;;;;;;11.70;7.40;;;31.30;99.90;;;;;;5063116;28;20896;-73
2023/07/03 11:32:09;;;;;;;10.45;7.65;;;31.30;99.90;;;;;;5076351;28;20800;-73
2023/07/03 11:34:36;;;;;;;12.35;7.90;;;31.30;99.90;;;;;;5072329;28;21394;-73
2023/07/03 11:37:40;;;;;;;12.55;8.10;;;31.40;99.90;;;;;;5082570;28;20455;-73
2023/07/03 11:40:25;;;;;;;9.77;7.90;;;31.30;99.90;;;;;;5081785;28;20432;-73
2023/07/03 11:43:21;;;;;;;10.43;8.35;;;31.40;99.90;;;;;;5062560;28;20986;-73
2023/07/03 11:45:56;;;;;;;10.32;8.40;;;31.30;99.90;;;;;;5087181;28;20406;-73
2023/07/03 11:48:33;;;;;;;14.40;8.95;;;31.30;99.90;;;;;;5074963;28;20428;-72
2023/07/03 11:51:16;;;;;;;12.23;9.60;;;31.30;99.90;;;;;;5057875;28;20411;-73
2023/07/03 11:53:53;;;;;;;13.30;9.40;;;31.30;99.90;;;;;;5074310;28;20407;-73
2023/07/03 11:56:35;;;;;;;13.07;8.60;;;31.40;99.90;;;;;;5060406;28;20433;-73
2023/07/03 11:59:24;;;;;;;11.55;7.82;;;31.40;99.90;;;;;;5075929;28;20492;-73
2023/07/03 12:02:12;;;;;;;12.73;8.80;;;31.30;99.90;;;;;;5078196;28;20868;-73
2023/07/03 12:04:45;;;;;;;15.02;9.75;;;31.30;99.90;;;;;;5106379;27;20484;-73
2023/07/03 12:07:21;;;;;;;14.27;8.93;;;31.40;99.90;;;;;;5102404;27;20816;-72
2023/07/03 12:09:49;;;;;;;13.60;8.60;;;31.40;99.90;;;;;;5080737;28;20494;-73
2023/07/03 12:12:19;;;;;;;19.13;13.27;;;31.30;99.90;;;;;;5095499;27;20414;-73
2023/07/03 12:14:58;;;;;;;17.75;11.65;;;31.30;99.90;;;;;;5078463;28;20912;-73
2023/07/03 12:17:29;;;;;;;15.33;12.27;;;31.30;99.90;;;;;;5079938;28;20421;-73
2023/07/03 12:20:17;;;;;;;18.95;13.20;;;31.40;99.90;;;;;;5083913;28;20417;-73
2023/07/03 12:22:47;;;;;;;14.90;12.20;;;31.50;99.90;;;;;;5083756;28;20406;-73
2023/07/03 12:25:23;;;;;;;15.40;12.50;;;31.30;99.90;;;;;;5075621;28;20916;-73
2023/07/03 12:27:52;;;;;;;14.40;12.20;;;31.40;99.90;;;;;;5079166;28;20409;-73
2023/07/03 12:30:30;;;;;;;15.20;12.18;;;31.30;99.90;;;;;;5065090;28;20411;-73
2023/07/03 12:33:01;;;;;;;14.03;12.07;;;31.30;99.90;;;;;;5079415;28;20453;-73
2023/07/03 12:35:43;;;;;;;16.47;12.53;;;31.30;99.90;;;;;;5079978;28;20415;-73
2023/07/03 12:38:12;;;;;;;15.40;12.05;;;31.30;99.90;;;;;;5069370;28;20416;-73
2023/07/03 12:40:46;;;;;;;15.48;12.70;;;31.30;99.90;;;;;;5072223;28;20496;-73
2023/07/03 12:43:18;;;;;;;16.55;12.55;;;31.30;99.90;;;;;;5082635;28;20502;-73
2023/07/03 12:45:52;;;;;;;17.07;13.77;;;31.30;99.90;;;;;;5071625;28;20443;-73
2023/07/03 12:48:21;;;;;;;17.42;13.63;;;31.30;99.90;;;;;;5057367;28;20400;-73
2023/07/03 12:50:58;;;;;;;17.05;14.63;;;31.30;99.90;;;;;;5067540;28;20414;-73
2023/07/03 12:53:34;;;;;;;16.80;14.85;;;31.30;99.90;;;;;;5075244;28;21243;-73
2023/07/03 12:56:09;;;;;;;19.45;14.65;;;31.30;99.90;;;;;;5078169;28;20410;-73
2023/07/03 12:58:35;;;;;;;16.85;14.43;;;31.20;99.90;;;;;;5096689;27;20419;-73
2023/07/03 13:01:07;;;;;;;18.77;14.80;;;31.20;99.90;;;;;;5076705;28;20579;-72
2023/07/03 13:03:40;;;;;;;20.60;16.42;;;31.30;99.90;;;;;;5071692;28;20440;-73
2023/07/03 13:06:19;;;;;;;18.23;16.30;;;31.30;99.90;;;;;;5074104;28;20661;-73
2023/07/03 13:08:48;;;;;;;18.75;16.63;;;31.30;99.90;;;;;;5105623;27;20404;-73